Time;durP1;ratioP1;P1;durP2;ratioP2;P2;SDS_P1;SDS_P2;PMS_P1;PMS_P2;Temp;Humidity;BMP_temperature;BMP_pressure;BME280_temperature;BME280_humidity;BME280_pressure;Samples;Min_cycle;Max_cycle;Signal;HPM_P1;HPM_P2
2023/05/15 00:00:09;;;;;;;6.80;5.63;;;;;;;14.07;76.54;99071.56;411475;23;4537;-82
2023/05/15 00:00:21;;;;;;;6.20;5.20;;;;;;;14.08;76.41;99073.22;408561;23;17828;-82
2023/05/15 00:00:33;;;;;;;6.70;5.05;;;;;;;14.08;76.42;99070.63;409376;23;4531;-82
2023/05/15 00:00:45;;;;;;;6.75;4.95;;;;;;;14.11;76.25;99071.28;406125;23;18679;-82
2023/05/15 00:00:57;;;;;;;7.22;4.80;;;;;;;14.12;76.03;99077.34;409888;23;4555;-82
2023/05/15 00:01:09;;;;;;;6.57;4.55;;;;;;;14.15;75.98;99066.75;405765;23;7500;-81
2023/05/15 00:01:22;;;;;;;6.13;4.13;;;;;;;14.15;76.06;99067.56;409227;23;5216;-81
2023/05/15 00:01:37;;;;;;;5.07;4.20;;;;;;;14.17;76.29;99070.09;408990;23;6953;-82
2023/05/15 00:01:49;;;;;;;5.78;4.40;;;;;;;14.18;76.46;99069.16;410480;23;18406;-82
2023/05/15 00:02:01;;;;;;;4.72;4.07;;;;;;;14.20;76.14;99069.91;407668;23;18071;-82
2023/05/15 00:02:13;;;;;;;4.45;3.80;;;;;;;14.22;75.98;99073.28;411392;23;5488;-82
2023/05/15 00:02:25;;;;;;;4.13;3.72;;;;;;;14.22;76.08;99064.59;407962;23;18123;-82
2023/05/15 00:02:38;;;;;;;4.30;3.90;;;;;;;14.23;76.11;99063.69;411997;23;4519;-82
2023/05/15 00:02:50;;;;;;;4.32;3.92;;;;;;;14.25;76.01;99067.91;409457;23;18046;-82
2023/05/15 00:03:03;;;;;;;4.20;3.80;;;;;;;14.25;76.29;99072.28;413043;23;4433;-81
2023/05/15 00:03:16;;;;;;;4.00;3.60;;;;;;;14.25;75.96;99065.28;409290;23;18162;-83
2023/05/15 00:03:28;;;;;;;4.40;3.70;;;;;;;14.27;75.77;99068.66;412652;23;5225;-82
2023/05/15 00:03:40;;;;;;;4.57;3.70;;;;;;;14.27;75.72;99060.81;409835;23;18322;-81
2023/05/15 00:03:53;;;;;;;4.28;3.63;;;;;;;14.28;75.94;99067.69;413161;23;4736;-82
2023/05/15 00:04:06;;;;;;;4.28;3.53;;;;;;;14.29;75.88;99069.41;410061;23;17731;-81
2023/05/15 00:04:18;;;;;;;4.32;3.60;;;;;;;14.31;75.69;99072.78;413141;23;4427;-82
2023/05/15 00:04:30;;;;;;;5.20;3.80;;;;;;;14.30;76.03;99065.84;407707;23;17681;-81
2023/05/15 00:04:42;;;;;;;5.63;3.70;;;;;;;14.30;76.14;99065.00;410991;23;5012;-83
2023/05/15 00:04:53;;;;;;;6.70;3.70;;;;;;;14.30;76.19;99065.84;410477;23;5522;-82
2023/05/15 00:05:06;;;;;;;5.32;3.70;;;;;;;14.30;75.96;99070.25;407744;23;17978;-82
2023/05/15 00:05:19;;;;;;;4.38;3.60;;;;;;;14.31;76.09;99056.25;411485;23;4661;-83
2023/05/15 00:05:31;;;;;;;4.00;3.50;;;;;;;14.29;75.93;99064.19;406934;23;18075;-82
2023/05/15 00:05:43;;;;;;;4.40;3.40;;;;;;;14.30;75.99;99060.63;411089;23;4510;-82
2023/05/15 00:05:55;;;;;;;4.35;3.20;;;;;;;14.28;75.76;99062.47;406152;23;16300;-82
2023/05/15 00:06:07;;;;;;;4.38;3.15;;;;;;;14.28;75.67;99062.47;411573;23;4456;-82
2023/05/15 00:06:19;;;;;;;4.35;3.30;;;;;;;14.27;75.41;99065.19;409032;23;9461;-81
2023/05/15 00:06:31;;;;;;;4.55;3.40;;;;;;;14.27;75.62;99054.75;412450;23;19504;-81
2023/05/15 00:06:43;;;;;;;4.43;3.38;;;;;;;14.28;75.61;99065.09;414718;23;4452;-83
2023/05/15 00:06:55;;;;;;;4.47;3.28;;;;;;;14.28;75.48;99067.69;411312;23;18190;-81
2023/05/15 00:07:07;;;;;;;3.60;3.00;;;;;;;14.29;75.41;99058.13;415111;23;4439;-83
2023/05/15 00:07:19;;;;;;;3.55;3.03;;;;;;;14.30;75.50;99060.63;410983;23;5159;-82
2023/05/15 00:07:31;;;;;;;4.25;3.35;;;;;;;14.32;75.81;99063.97;414785;23;5320;-82
2023/05/15 00:07:43;;;;;;;4.75;3.50;;;;;;;14.32;75.79;99061.38;414503;23;4465;-82
2023/05/15 00:07:56;;;;;;;4.20;3.40;;;;;;;14.33;75.44;99060.44;409017;23;19860;-81
2023/05/15 00:08:08;;;;;;;3.95;3.40;;;;;;;14.35;75.31;99063.81;413383;23;4441;-82
2023/05/15 00:08:20;;;;;;;4.07;3.40;;;;;;;14.35;75.66;99063.00;409211;23;16310;-81
2023/05/15 00:08:32;;;;;;;4.00;3.50;;;;;;;14.35;75.56;99066.44;414075;23;4551;-82
2023/05/15 00:08:44;;;;;;;3.95;3.40;;;;;;;14.36;75.52;99056.81;411828;23;4931;-82
2023/05/15 00:08:56;;;;;;;4.57;3.30;;;;;;;14.38;75.10;99062.78;408128;23;17811;-82
2023/05/15 00:09:07;;;;;;;4.80;3.42;;;;;;;14.38;75.20;99062.78;409601;23;4967;-82
2023/05/15 00:09:19;;;;;;;4.03;3.45;;;;;;;14.39;75.17;99064.50;406645;23;5770;-82
2023/05/15 00:09:31;;;;;;;5.45;3.65;;;;;;;14.41;74.96;99061.75;409423;23;5384;-82
2023/05/15 00:09:43;;;;;;;5.28;3.50;;;;;;;14.41;75.08;99067.84;408559;23;4939;-82
2023/05/15 00:09:55;;;;;;;3.70;3.30;;;;;;;14.43;74.80;99066.00;405942;23;18328;-82
2023/05/15 00:10:07;;;;;;;3.97;3.40;;;;;;;14.42;75.04;99060.84;409509;23;4482;-83
2023/05/15 00:10:19;;;;;;;4.50;3.40;;;;;;;14.44;74.96;99062.44;407848;23;4474;-81
2023/05/15 00:10:31;;;;;;;5.03;3.33;;;;;;;14.43;75.13;99067.75;411880;23;4597;-82
2023/05/15 00:10:43;;;;;;;4.47;3.20;;;;;;;14.42;75.42;99069.53;411532;23;4456;-83
2023/05/15 00:11:15;;;;;;;6.07;3.50;;;;;;;14.37;75.36;99064.56;399362;23;19662;-68
2023/05/15 00:11:27;;;;;;;4.40;3.47;;;;;;;14.38;75.53;99066.25;414685;23;4618;-68
2023/05/15 00:11:39;;;;;;;4.45;3.70;;;;;;;14.36;75.58;99064.66;416972;23;4910;-69
2023/05/15 00:11:51;;;;;;;4.07;3.63;;;;;;;14.33;75.85;99063.06;411734;23;18546;-68
2023/05/15 00:12:03;;;;;;;3.92;3.50;;;;;;;14.32;75.90;99061.38;413033;23;4514;-68
2023/05/15 00:12:15;;;;;;;4.20;3.63;;;;;;;14.32;76.02;99063.97;410928;23;19623;-69
2023/05/15 00:12:27;;;;;;;4.15;3.47;;;;;;;14.34;75.97;99059.50;415172;23;4949;-69
2023/05/15 00:12:39;;;;;;;4.32;3.50;;;;;;;14.37;75.85;99061.97;414214;23;9897;-68
2023/05/15 00:12:51;;;;;;;4.60;3.42;;;;;;;14.38;75.80;99063.63;408256;23;19532;-68
2023/05/15 00:13:03;;;;;;;5.13;3.40;;;;;;;14.39;75.67;99064.50;411767;23;4599;-68
2023/05/15 00:13:16;;;;;;;4.47;3.30;;;;;;;14.39;75.69;99065.31;407408;23;18337;-68
2023/05/15 00:13:29;;;;;;;5.70;3.47;;;;;;;14.40;75.29;99066.16;411665;23;4765;-68
2023/05/15 00:13:41;;;;;;;4.75;3.45;;;;;;;14.39;75.36;99061.88;407893;23;5086;-68
2023/05/15 00:13:53;;;;;;;4.15;3.55;;;;;;;14.38;75.53;99063.63;410789;23;5556;-68
2023/05/15 00:14:05;;;;;;;4.78;3.45;;;;;;;14.39;75.42;99064.50;407930;23;16501;-68
2023/05/15 00:14:17;;;;;;;4.88;3.30;;;;;;;14.37;75.47;99069.81;411381;23;4628;-68
2023/05/15 00:14:29;;;;;;;4.32;3.25;;;;;;;14.33;75.64;99065.69;411072;23;5388;-68
2023/05/15 00:14:41;;;;;;;4.07;3.30;;;;;;;14.35;75.62;99060.38;407240;23;18234;-68
2023/05/15 00:14:53;;;;;;;4.07;3.47;;;;;;;14.35;75.72;99063.00;412598;23;4986;-68
2023/05/15 00:15:06;;;;;;;4.20;3.60;;;;;;;14.36;75.64;99065.50;409526;23;10559;-68
2023/05/15 00:15:17;;;;;;;4.50;3.50;;;;;;;14.35;76.21;99066.44;417014;23;4652;-69
2023/05/15 00:15:29;;;;;;;4.60;3.38;;;;;;;14.36;76.06;99065.50;416155;23;10579;-68
2023/05/15 00:15:41;;;;;;;4.65;3.17;;;;;;;14.35;76.38;99069.06;414320;23;17610;-68
2023/05/15 00:15:53;;;;;;;5.25;3.20;;;;;;;14.35;76.15;99068.22;417224;23;4747;-68
2023/05/15 00:16:07;;;;;;;5.20;3.28;;;;;;;14.36;76.06;99065.50;413092;23;18192;-68
2023/05/15 00:16:19;;;;;;;4.55;3.38;;;;;;;14.38;75.75;99063.63;417145;23;4626;-69
2023/05/15 00:16:31;;;;;;;4.40;3.42;;;;;;;14.41;75.71;99064.38;413152;23;18151;-68
2023/05/15 00:16:43;;;;;;;4.22;3.30;;;;;;;14.42;75.57;99061.69;415106;23;5225;-68
2023/05/15 00:16:55;;;;;;;4.28;3.28;;;;;;;14.44;75.38;99065.06;411474;23;9252;-69
2023/05/15 00:17:08;;;;;;;4.75;3.42;;;;;;;14.45;75.15;99071.16;412792;23;4445;-69
2023/05/15 00:17:20;;;;;;;5.03;3.45;;;;;;;14.46;75.26;99070.19;409378;23;16058;-68
2023/05/15 00:17:32;;;;;;;4.80;3.45;;;;;;;14.46;75.04;99064.97;412665;23;5222;-68
2023/05/15 00:17:44;;;;;;;4.88;3.45;;;;;;;14.47;75.15;99067.50;413441;23;4665;-68
2023/05/15 00:17:56;;;;;;;4.55;3.50;;;;;;;14.45;75.14;99058.06;410374;23;18284;-68
2023/05/15 00:18:08;;;;;;;3.85;3.45;;;;;;;14.47;75.11;99071.91;413417;23;4587;-68
2023/05/15 00:18:20;;;;;;;3.60;3.25;;;;;;;14.47;75.05;99069.28;410222;23;18325;-68
2023/05/15 00:18:32;;;;;;;5.22;3.50;;;;;;;14.47;74.88;99069.28;413459;23;4391;-68
2023/05/15 00:18:45;;;;;;;5.97;3.60;;;;;;;14.47;74.78;99064.88;413733;23;9909;-68
2023/05/15 00:18:57;;;;;;;5.20;3.40;;;;;;;14.49;74.78;99070.03;410722;23;18103;-68
2023/05/15 00:19:09;;;;;;;3.30;3.00;;;;;;;14.49;74.64;99064.81;414824;23;4501;-69
2023/05/15 00:19:21;;;;;;;3.53;3.10;;;;;;;14.51;74.68;99068.19;412113;23;18175;-69
2023/05/15 00:19:33;;;;;;;3.67;3.00;;;;;;;14.51;74.66;99071.63;415518;23;5170;-69
2023/05/15 00:19:45;;;;;;;3.78;3.20;;;;;;;14.52;74.66;99064.63;411988;23;9953;-69
2023/05/15 00:19:58;;;;;;;3.63;3.20;;;;;;;14.53;74.46;99071.53;414953;23;4574;-68
2023/05/15 00:20:11;;;;;;;3.75;3.10;;;;;;;14.52;74.44;99064.63;412286;23;4605;-68
2023/05/15 00:20:23;;;;;;;4.30;3.00;;;;;;;14.54;74.26;99067.97;415472;23;4579;-68
2023/05/15 00:20:35;;;;;;;3.80;3.05;;;;;;;14.52;74.60;99072.47;415134;23;4549;-67
2023/05/15 00:20:47;;;;;;;3.75;3.20;;;;;;;14.49;74.88;99070.03;412292;23;19087;-68
2023/05/15 00:20:59;;;;;;;3.53;3.20;;;;;;;14.49;74.97;99070.03;416015;23;4497;-68
2023/05/15 00:21:11;;;;;;;3.83;3.20;;;;;;;14.46;74.85;99060.56;410690;23;16372;-68
2023/05/15 00:21:22;;;;;;;4.03;3.13;;;;;;;14.47;74.73;99071.91;414379;23;4601;-68
2023/05/15 00:21:34;;;;;;;4.28;3.33;;;;;;;14.47;74.81;99071.91;413947;23;4475;-68
2023/05/15 00:21:46;;;;;;;4.45;3.53;;;;;;;14.47;74.88;99074.50;411465;23;18224;-68
2023/05/15 00:21:58;;;;;;;4.22;3.67;;;;;;;14.46;74.91;99071.03;414626;23;5823;-68
2023/05/15 00:22:10;;;;;;;3.83;3.35;;;;;;;14.46;74.99;99071.03;412072;23;11390;-68
2023/05/15 00:22:23;;;;;;;3.58;2.95;;;;;;;14.47;74.83;99066.66;414860;23;4766;-68
2023/05/15 00:22:35;;;;;;;4.25;2.78;;;;;;;14.49;74.86;99070.03;415370;23;4479;-67
2023/05/15 00:22:47;;;;;;;4.70;2.88;;;;;;;14.50;74.66;99069.09;412356;23;18371;-68
2023/05/15 00:23:01;;;;;;;4.57;3.30;;;;;;;14.50;74.76;99076.94;412393;23;17949;-68
2023/05/15 00:23:13;;;;;;;4.32;3.38;;;;;;;14.48;74.42;99074.41;413716;23;6007;-68
2023/05/15 00:23:25;;;;;;;4.80;3.33;;;;;;;14.47;74.64;99066.66;411983;23;8765;-69
2023/05/15 00:23:37;;;;;;;4.53;3.30;;;;;;;14.46;74.60;99071.03;415279;23;5149;-69
2023/05/15 00:23:52;;;;;;;4.03;3.30;;;;;;;14.46;74.55;99070.19;415954;23;5327;-69
2023/05/15 00:24:04;;;;;;;4.15;3.33;;;;;;;14.45;74.60;99071.16;413162;23;18029;-68
2023/05/15 00:24:16;;;;;;;3.88;3.30;;;;;;;14.45;74.60;99071.16;410347;23;19314;-68
2023/05/15 00:24:28;;;;;;;3.53;3.17;;;;;;;14.45;74.58;99074.59;413538;23;4547;-68
2023/05/15 00:24:40;;;;;;;3.85;3.15;;;;;;;14.45;74.69;99068.53;412183;23;11440;-68
2023/05/15 00:24:52;;;;;;;4.18;3.33;;;;;;;14.47;74.67;99077.13;415022;23;4642;-68
2023/05/15 00:25:05;;;;;;;4.63;3.40;;;;;;;14.46;74.74;99067.59;414180;23;4681;-68
2023/05/15 00:25:18;;;;;;;4.55;3.45;;;;;;;14.44;74.56;99070.28;411945;23;17988;-68
2023/05/15 00:25:30;;;;;;;4.50;3.45;;;;;;;14.46;75.09;99055.34;415043;23;4635;-68
2023/05/15 00:25:42;;;;;;;4.35;3.42;;;;;;;14.47;74.68;99072.72;411937;23;17956;-68
2023/05/15 00:25:54;;;;;;;5.57;3.38;;;;;;;14.47;74.64;99067.50;415059;23;5191;-68
2023/05/15 00:26:06;;;;;;;5.32;3.30;;;;;;;14.47;74.62;99066.66;412135;23;18201;-68
2023/05/15 00:26:18;;;;;;;4.47;3.30;;;;;;;14.47;74.32;99074.50;414996;23;4774;-69
2023/05/15 00:26:30;;;;;;;4.32;3.28;;;;;;;14.48;74.35;99066.56;410396;23;9230;-68
2023/05/15 00:26:42;;;;;;;4.03;3.22;;;;;;;14.49;74.37;99075.28;415277;23;4439;-68
2023/05/15 00:26:58;;;;;;;4.18;3.40;;;;;;;14.49;74.53;99075.28;409791;23;18191;-68
2023/05/15 00:27:10;;;;;;;4.47;3.40;;;;;;;14.49;74.29;99073.50;413104;23;4625;-68
2023/05/15 00:27:22;;;;;;;4.80;3.45;;;;;;;14.49;74.12;99070.88;411692;23;18898;-68
2023/05/15 00:27:35;;;;;;;4.30;3.25;;;;;;;14.49;74.18;99072.66;415647;23;5311;-68
2023/05/15 00:27:46;;;;;;;4.65;3.20;;;;;;;14.49;74.15;99073.50;411690;23;18367;-68
2023/05/15 00:27:58;;;;;;;4.40;3.30;;;;;;;14.49;74.29;99070.03;415820;23;5721;-68
2023/05/15 00:28:10;;;;;;;5.00;3.22;;;;;;;14.51;74.42;99068.19;411185;23;10594;-68
2023/05/15 00:28:22;;;;;;;5.45;3.20;;;;;;;14.51;74.31;99068.19;415233;23;5186;-68
2023/05/15 00:28:34;;;;;;;6.13;3.20;;;;;;;14.52;74.24;99069.84;414783;23;4502;-68
2023/05/15 00:28:46;;;;;;;5.65;3.25;;;;;;;14.52;74.12;99067.22;412359;23;18242;-68
2023/05/15 00:28:58;;;;;;;5.38;3.45;;;;;;;14.52;74.22;99067.22;415490;23;4417;-69
2023/05/15 00:29:10;;;;;;;5.25;3.47;;;;;;;14.52;74.03;99069.84;415486;23;4698;-69
2023/05/15 00:29:22;;;;;;;5.20;3.28;;;;;;;14.51;74.36;99069.00;410390;23;17991;-68
2023/05/15 00:29:34;;;;;;;5.30;3.30;;;;;;;14.53;73.97;99066.31;414441;23;4609;-68
2023/05/15 00:29:46;;;;;;;5.65;3.22;;;;;;;14.54;73.84;99067.97;412361;23;19193;-68
2023/05/15 00:29:58;;;;;;;5.95;3.22;;;;;;;14.55;73.81;99065.28;415411;23;5216;-68
2023/05/15 00:30:12;;;;;;;5.63;3.20;;;;;;;14.55;73.86;99072.28;415431;23;5496;-68
2023/05/15 00:30:24;;;;;;;4.80;3.20;;;;;;;14.56;73.87;99076.63;412538;23;17870;-68
2023/05/15 00:30:36;;;;;;;5.47;3.33;;;;;;;14.53;74.09;99068.94;412458;23;9703;-69
2023/05/15 00:30:47;;;;;;;5.47;3.42;;;;;;;14.53;73.94;99071.53;415375;23;4800;-68
2023/05/15 00:30:59;;;;;;;5.13;3.28;;;;;;;14.47;73.77;99067.50;414871;23;4600;-69
2023/05/15 00:31:13;;;;;;;3.67;2.95;;;;;;;14.46;73.90;99070.19;411781;23;18435;-68
2023/05/15 00:31:25;;;;;;;3.83;3.08;;;;;;;14.49;73.76;99073.50;414721;23;4620;-68
2023/05/15 00:31:37;;;;;;;4.05;3.33;;;;;;;14.47;73.76;99066.66;410483;23;18130;-69
2023/05/15 00:31:50;;;;;;;3.70;3.20;;;;;;;14.47;73.93;99067.50;413913;23;4477;-69
2023/05/15 00:32:02;;;;;;;3.25;2.95;;;;;;;14.51;73.82;99068.19;411779;23;17825;-69
2023/05/15 00:32:14;;;;;;;3.60;3.00;;;;;;;14.49;73.92;99063.03;415219;23;5272;-68
2023/05/15 00:32:26;;;;;;;4.07;3.20;;;;;;;14.50;73.71;99071.72;411245;23;18294;-68
2023/05/15 00:32:38;;;;;;;4.75;3.30;;;;;;;14.48;73.92;99068.34;414983;23;4582;-69
2023/05/15 00:32:50;;;;;;;4.20;3.13;;;;;;;14.49;73.80;99064.81;412014;23;10429;-68
2023/05/15 00:33:02;;;;;;;4.28;3.30;;;;;;;14.50;73.72;99063.88;414889;23;5598;-68
2023/05/15 00:33:15;;;;;;;4.78;3.50;;;;;;;14.51;73.64;99068.19;414056;23;4682;-68
2023/05/15 00:33:27;;;;;;;4.95;3.45;;;;;;;14.51;73.68;99062.94;412019;23;18520;-68
2023/05/15 00:33:39;;;;;;;4.80;3.08;;;;;;;14.49;73.87;99070.88;415563;23;5081;-68
2023/05/15 00:33:51;;;;;;;4.43;3.00;;;;;;;14.48;73.91;99063.09;411413;23;18281;-68
2023/05/15 00:34:03;;;;;;;4.35;3.03;;;;;;;14.49;73.70;99064.81;415267;23;5281;-68
2023/05/15 00:34:15;;;;;;;4.22;3.00;;;;;;;14.51;73.83;99065.56;415359;23;4525;-68
2023/05/15 00:34:27;;;;;;;3.97;3.10;;;;;;;14.53;73.86;99066.31;411618;23;19387;-68
2023/05/15 00:34:39;;;;;;;3.80;3.20;;;;;;;14.53;73.80;99067.16;415838;23;4590;-68
2023/05/15 00:34:51;;;;;;;3.80;3.20;;;;;;;14.53;73.85;99066.31;412623;23;10005;-68
2023/05/15 00:35:04;;;;;;;3.50;3.10;;;;;;;14.51;73.45;99057.72;415827;23;4952;-68
2023/05/15 00:35:16;;;;;;;3.45;3.15;;;;;;;14.53;73.46;99072.38;412937;23;11045;-69
2023/05/15 00:35:28;;;;;;;3.40;3.10;;;;;;;14.54;73.48;99062.75;416439;23;5141;-69
2023/05/15 00:35:40;;;;;;;3.67;3.10;;;;;;;14.54;73.50;99062.75;414215;23;4691;-69
2023/05/15 00:35:52;;;;;;;3.92;3.15;;;;;;;14.54;73.38;99052.28;411978;23;18663;-69
2023/05/15 00:36:04;;;;;;;3.75;3.13;;;;;;;14.53;73.34;99061.09;415392;23;5857;-68
2023/05/15 00:36:16;;;;;;;4.60;3.10;;;;;;;14.54;73.17;99067.97;412273;23;17957;-68
2023/05/15 00:36:28;;;;;;;4.97;3.10;;;;;;;14.52;73.46;99065.44;415673;23;4560;-68
2023/05/15 00:36:40;;;;;;;5.32;3.10;;;;;;;14.51;73.72;99065.56;415081;23;4945;-68
2023/05/15 00:36:52;;;;;;;4.63;3.20;;;;;;;14.49;73.92;99059.56;412353;23;18038;-68
2023/05/15 00:37:04;;;;;;;3.80;3.20;;;;;;;14.50;74.17;99061.25;414870;23;4493;-69
2023/05/15 00:37:16;;;;;;;3.80;3.10;;;;;;;14.47;73.94;99061.44;410956;23;16833;-69
2023/05/15 00:37:28;;;;;;;4.07;3.20;;;;;;;14.49;73.97;99059.56;414428;23;4626;-69
2023/05/15 00:37:40;;;;;;;4.35;3.20;;;;;;;14.49;73.75;99060.41;415627;23;4525;-68
2023/05/15 00:37:52;;;;;;;3.97;3.17;;;;;;;14.50;74.10;99061.25;412219;23;18345;-68
2023/05/15 00:38:04;;;;;;;3.80;3.05;;;;;;;14.51;74.00;99062.94;415529;23;5210;-68
2023/05/15 00:38:16;;;;;;;4.50;3.08;;;;;;;14.51;73.71;99062.94;412522;23;18245;-69
2023/05/15 00:38:28;;;;;;;4.35;3.13;;;;;;;14.52;73.83;99068.06;415049;23;4638;-68
2023/05/15 00:38:40;;;;;;;3.95;3.05;;;;;;;14.52;73.89;99062.84;413965;23;4473;-69
2023/05/15 00:38:52;;;;;;;3.55;3.00;;;;;;;14.53;74.10;99058.47;411769;23;18202;-69
2023/05/15 00:39:04;;;;;;;3.72;3.15;;;;;;;14.55;74.11;99067.06;415173;23;5430;-68
2023/05/15 00:39:16;;;;;;;3.83;3.40;;;;;;;14.54;74.09;99066.19;411087;23;18071;-69
2023/05/15 00:39:28;;;;;;;3.80;3.33;;;;;;;14.53;74.27;99071.53;415227;23;4571;-69
2023/05/15 00:39:40;;;;;;;4.05;3.20;;;;;;;14.56;74.08;99060.91;414917;23;4671;-68
2023/05/15 00:39:54;;;;;;;4.72;3.22;;;;;;;14.57;73.85;99066.06;410960;23;18159;-69
2023/05/15 00:40:09;;;;;;;5.40;3.17;;;;;;;14.60;73.77;99070.28;412225;23;5575;-68
2023/05/15 00:40:23;;;;;;;4.60;3.17;;;;;;;14.60;73.72;99065.03;410945;23;9774;-68
2023/05/15 00:40:37;;;;;;;4.93;3.35;;;;;;;14.60;73.67;99065.03;415191;23;4799;-68
2023/05/15 00:40:50;;;;;;;4.60;3.13;;;;;;;14.62;73.52;99060.56;414151;23;17925;-68
2023/05/15 00:41:05;;;;;;;3.88;3.05;;;;;;;14.63;73.43;99067.50;413849;23;17982;-68
2023/05/15 00:41:17;;;;;;;3.95;2.90;;;;;;;14.65;73.77;99070.00;413903;23;18297;-68
2023/05/15 00:41:31;;;;;;;4.25;3.00;;;;;;;14.66;73.72;99062.06;417420;23;4430;-68
2023/05/15 00:41:45;;;;;;;4.35;3.30;;;;;;;14.65;73.78;99070.00;411798;23;18297;-68
2023/05/15 00:41:59;;;;;;;4.20;3.38;;;;;;;14.65;73.60;99065.63;412309;23;19147;-68
2023/05/15 00:42:15;;;;;;;4.35;3.20;;;;;;;14.66;73.61;99072.53;410779;23;18131;-68
2023/05/15 00:42:27;;;;;;;4.18;3.10;;;;;;;14.65;73.77;99068.25;410866;23;18008;-68
2023/05/15 00:42:39;;;;;;;4.00;3.17;;;;;;;14.64;73.85;99066.53;415016;23;4598;-69
2023/05/15 00:42:52;;;;;;;4.35;3.20;;;;;;;14.64;73.83;99071.78;410798;23;17993;-68
2023/05/15 00:43:05;;;;;;;6.93;3.30;;;;;;;14.64;74.00;99074.38;415280;23;5088;-69
2023/05/15 00:43:18;;;;;;;6.82;3.42;;;;;;;14.64;74.05;99069.16;411665;23;18068;-68
2023/05/15 00:43:30;;;;;;;5.90;3.17;;;;;;;14.64;73.55;99069.16;415111;23;5656;-68
2023/05/15 00:43:42;;;;;;;5.43;3.10;;;;;;;14.65;73.67;99070.00;411701;23;18532;-68
2023/05/15 00:43:54;;;;;;;6.55;3.10;;;;;;;14.64;73.80;99066.53;415442;23;4417;-68
2023/05/15 00:44:08;;;;;;;4.82;3.00;;;;;;;14.65;73.67;99068.25;411617;23;18070;-68
2023/05/15 00:44:21;;;;;;;3.75;3.03;;;;;;;14.64;73.79;99074.38;415233;23;5142;-68
2023/05/15 00:44:34;;;;;;;3.88;3.05;;;;;;;14.63;73.75;99072.72;411673;23;18270;-68
2023/05/15 00:44:50;;;;;;;4.00;2.90;;;;;;;14.63;73.58;99070.09;412779;23;10017;-68
2023/05/15 00:45:02;;;;;;;3.55;3.00;;;;;;;14.62;73.90;99071.03;413869;23;17110;-68
2023/05/15 00:45:15;;;;;;;3.65;3.35;;;;;;;14.62;73.84;99065.78;414649;23;4846;-69
2023/05/15 00:45:29;;;;;;;3.88;3.47;;;;;;;14.63;73.74;99072.72;411225;23;19282;-68
2023/05/15 00:45:41;;;;;;;4.13;3.33;;;;;;;14.64;73.77;99074.38;414893;23;9065;-68
2023/05/15 00:45:54;;;;;;;3.95;3.10;;;;;;;14.61;73.67;99069.34;412819;23;17561;-68
2023/05/15 00:46:06;;;;;;;4.38;3.13;;;;;;;14.63;73.56;99067.50;412124;23;10543;-68
2023/05/15 00:46:20;;;;;;;4.47;3.10;;;;;;;14.64;73.36;99071.78;415010;23;5091;-69
2023/05/15 00:46:34;;;;;;;4.10;2.95;;;;;;;14.65;73.46;99070.84;411444;23;18011;-69
2023/05/15 00:46:48;;;;;;;3.95;3.03;;;;;;;14.63;73.47;99072.72;411853;23;16284;-68
2023/05/15 00:47:02;;;;;;;4.22;3.13;;;;;;;14.62;73.52;99068.41;415390;23;4484;-68
2023/05/15 00:47:15;;;;;;;3.72;3.30;;;;;;;14.65;73.44;99068.25;412022;23;17692;-68
2023/05/15 00:47:27;;;;;;;5.90;3.28;;;;;;;14.65;73.33;99064.75;410812;23;17991;-68
2023/05/15 00:47:41;;;;;;;5.95;3.03;;;;;;;14.61;73.20;99069.34;415287;23;4589;-68
2023/05/15 00:47:54;;;;;;;4.65;3.13;;;;;;;14.58;73.46;99069.53;411737;23;18490;-68
2023/05/15 00:48:08;;;;;;;6.18;3.40;;;;;;;14.58;73.55;99069.53;412123;23;18110;-68
2023/05/15 00:48:22;;;;;;;5.25;3.50;;;;;;;14.53;73.53;99072.38;414587;23;4611;-68
2023/05/15 00:48:34;;;;;;;4.25;3.22;;;;;;;14.51;73.53;99068.19;411628;23;18345;-68
2023/05/15 00:48:48;;;;;;;4.40;3.20;;;;;;;14.48;73.75;99068.34;410540;23;4949;-68
2023/05/15 00:49:01;;;;;;;5.30;3.28;;;;;;;14.43;73.65;99066.00;415172;23;5137;-67
2023/05/15 00:49:15;;;;;;;5.50;3.30;;;;;;;14.42;73.44;99064.31;409698;23;18401;-68
2023/05/15 00:49:28;;;;;;;5.30;3.20;;;;;;;14.35;73.33;99069.06;410889;23;18034;-68
2023/05/15 00:49:41;;;;;;;5.43;3.10;;;;;;;14.33;73.65;99070.91;415075;23;4533;-68
2023/05/15 00:49:54;;;;;;;4.38;3.20;;;;;;;14.31;73.46;99072.78;412195;23;18612;-69
2023/05/15 00:50:09;;;;;;;4.10;3.38;;;;;;;14.34;73.39;99067.34;411782;23;7685;-68
2023/05/15 00:50:22;;;;;;;3.85;3.25;;;;;;;14.33;73.47;99065.69;409750;23;10760;-68
2023/05/15 00:50:35;;;;;;;7.68;3.17;;;;;;;14.32;73.53;99069.22;413118;23;4867;-68
2023/05/15 00:50:50;;;;;;;8.13;3.03;;;;;;;14.34;73.33;99062.13;410194;23;16431;-68
2023/05/15 00:51:02;;;;;;;6.50;2.80;;;;;;;14.36;73.27;99062.88;409882;23;17894;-69
2023/05/15 00:51:15;;;;;;;4.95;2.85;;;;;;;14.38;72.92;99074.09;411750;23;4711;-69
2023/05/15 00:51:27;;;;;;;5.45;3.08;;;;;;;14.36;73.07;99075.94;407841;23;19317;-68
2023/05/15 00:51:41;;;;;;;3.63;3.13;;;;;;;14.33;73.29;99064.84;411584;23;4783;-68
2023/05/15 00:51:53;;;;;;;3.53;3.10;;;;;;;14.33;73.32;99070.91;408266;23;18276;-68
2023/05/15 00:52:07;;;;;;;4.40;2.97;;;;;;;14.34;73.32;99067.34;411263;23;4683;-68
2023/05/15 00:52:22;;;;;;;7.15;3.10;;;;;;;14.32;73.59;99074.44;410053;23;17898;-68
2023/05/15 00:52:35;;;;;;;6.28;3.22;;;;;;;14.32;73.40;99074.44;413120;23;4626;-68
2023/05/15 00:52:47;;;;;;;3.90;3.30;;;;;;;14.32;73.32;99069.22;409844;23;18168;-68
2023/05/15 00:52:59;;;;;;;3.88;3.17;;;;;;;14.34;73.24;99074.34;413527;23;4461;-68
2023/05/15 00:53:11;;;;;;;3.63;3.00;;;;;;;14.35;73.20;99073.44;408785;23;11663;-68
2023/05/15 00:53:24;;;;;;;3.10;2.80;;;;;;;14.35;73.31;99073.44;413317;23;4534;-68
2023/05/15 00:53:37;;;;;;;3.72;3.05;;;;;;;14.36;73.19;99065.50;409142;23;9292;-69
2023/05/15 00:53:51;;;;;;;4.30;3.00;;;;;;;14.38;73.41;99073.25;413346;23;5070;-68
2023/05/15 00:54:04;;;;;;;4.68;3.15;;;;;;;14.34;73.50;99067.34;409728;23;18077;-68
2023/05/15 00:54:16;;;;;;;5.00;4.05;;;;;;;14.30;73.78;99060.63;413827;23;4576;-68
2023/05/15 00:54:28;;;;;;;5.07;4.50;;;;;;;14.29;73.76;99068.56;411967;23;18104;-68
2023/05/15 00:54:40;;;;;;;4.60;4.18;;;;;;;14.27;73.91;99071.25;414567;23;4883;-68
2023/05/15 00:54:52;;;;;;;4.28;3.33;;;;;;;14.25;73.97;99073.13;410939;23;17611;-68
2023/05/15 00:55:05;;;;;;;4.20;3.28;;;;;;;14.24;74.17;99071.44;415280;23;4466;-68
2023/05/15 00:55:17;;;;;;;4.78;3.33;;;;;;;14.26;74.11;99068.72;411859;23;18159;-68
2023/05/15 00:55:32;;;;;;;4.22;3.30;;;;;;;14.25;74.24;99069.69;415661;23;4492;-68
2023/05/15 00:55:45;;;;;;;4.22;3.22;;;;;;;14.28;74.03;99072.94;412465;23;18062;-68
2023/05/15 00:55:58;;;;;;;4.43;3.22;;;;;;;14.30;73.93;99065.84;411925;23;19301;-68
2023/05/15 00:56:11;;;;;;;6.45;5.60;;;;;;;14.32;73.76;99069.22;415544;23;4757;-68
2023/05/15 00:56:24;;;;;;;10.05;9.10;;;;;;;14.34;73.63;99066.53;412095;23;18214;-68
2023/05/15 00:56:36;;;;;;;11.35;10.35;;;;;;;14.36;73.69;99075.94;413076;23;4589;-68
2023/05/15 00:56:50;;;;;;;9.20;8.40;;;;;;;14.37;73.51;99067.19;413228;23;17465;-69
2023/05/15 00:57:04;;;;;;;7.13;6.28;;;;;;;14.39;73.50;99069.72;412432;23;18376;-68
2023/05/15 00:57:17;;;;;;;7.47;5.20;;;;;;;14.41;73.61;99074.84;410489;23;11786;-68
2023/05/15 00:57:33;;;;;;;6.30;4.50;;;;;;;14.42;73.75;99068.69;414678;23;5189;-68
2023/05/15 00:57:46;;;;;;;5.25;3.83;;;;;;;14.42;73.77;99073.94;411908;23;18231;-69
2023/05/15 00:58:00;;;;;;;4.35;3.47;;;;;;;14.43;73.65;99067.75;411865;23;18509;-68
2023/05/15 00:58:13;;;;;;;3.92;3.33;;;;;;;14.45;73.59;99073.75;411211;23;15946;-68
2023/05/15 00:58:27;;;;;;;5.22;3.60;;;;;;;14.43;73.89;99070.38;414358;23;5132;-68
2023/05/15 00:58:41;;;;;;;5.35;3.80;;;;;;;14.41;74.27;99070.47;411909;23;19162;-68
2023/05/15 00:58:54;;;;;;;3.85;3.45;;;;;;;14.41;74.16;99067.00;411996;23;18264;-68
2023/05/15 00:59:07;;;;;;;3.53;3.03;;;;;;;14.41;74.34;99077.47;412244;23;9595;-68
2023/05/15 00:59:21;;;;;;;3.97;3.03;;;;;;;14.42;74.20;99073.94;415486;23;5200;-68
2023/05/15 00:59:33;;;;;;;4.32;3.30;;;;;;;14.41;74.05;99072.22;411294;23;18362;-68
2023/05/15 00:59:46;;;;;;;4.50;3.30;;;;;;;14.43;73.97;99076.47;414378;23;4782;-68
2023/05/15 01:00:09;;;;;;;4.65;3.10;;;;;;;14.42;74.11;99077.38;411910;23;19498;-69
2023/05/15 01:00:21;;;;;;;4.40;3.20;;;;;;;14.44;74.03;99072.06;414575;23;17265;-69
2023/05/15 01:00:33;;;;;;;3.70;3.20;;;;;;;14.45;73.87;99074.59;412586;23;18244;-68